Terminal Aerodrome Forecast
Issued by NWS

Home | Current Version | Previous Version | Text Only | Print | Product List | Glossary On
Versions: 1 2 3 4 5 6 7 8 9 10 11 12 13 14 15 16 17
000
FTUS42 KFFC 221721
TAFFTY
TAF
KFTY 221721Z 2218/2318 09010G21KT 6SM SHRA FEW008 OVC015
      TEMPO 2218/2222 3SM SHRA BKN008
     FM230100 09015G25KT 3SM +SHRA OVC010
     FM230300 10020G32KT 4SM +SHRA OVC008
     FM231200 10010G18KT 5SM SHRA OVC008
     FM231500 09007KT 6SM SHRA BKN009
     FM231700 09007KT P6SM SHRA BKN015=

USA.gov is the U.S. government's official web portal to all federal, state and local government web resources and services.